Impacts TAF Board
For situational awareness. Not to be used for flight planning purposes.
IDs:

KMCO - Orlando Intl, FL, US

Issued at 2340 UTC 18 Dec 2018
Updated at 2347 UTC 18 Dec 2018
Potential Impact None Slight Moderate High
Time2253Z 19/00Z 19/01Z 19/02Z 19/03Z 19/04Z 19/05Z 19/06Z 19/07Z 19/08Z 19/09Z 19/10Z 19/11Z 19/12Z>>
Type OBS PRVL PRVL PRVL PRVL PRVL PRVL PRVL PRVL PRVL PRVL PRVL PRVL PRVL
VIS 10 >6 >6 >6 >6 >6 >6 >6 >6 >6 >6 >6 >6 >6
CIG -- -- -- -- -- -- -- -- -- -- -- -- -- --
Cover FEW SCT SCT SCT SCT SCT SCT SCT SCT SCT SCT SCT SCT SCT
FltCat VFR VFR VFR VFR VFR VFR VFR VFR VFR VFR VFR VFR VFR VFR
WX -- -- -- -- -- -- -- -- -- -- -- -- -- --
WDir VRB VRB VRB VRB VRB VRB VRB VRB VRB VRB VRB VRB VRB VRB
WSpd 0 3 3 3 3 3 3 3 3 3 3 3 3 3
WGst -- -- -- -- -- -- -- -- -- -- -- -- -- --
Raw TAF
KMCO 182340Z 1900/2006 VRB03KT P6SM SCT250
  FM191500 11007KT P6SM SCT035 SCT250
  FM200000 VRB04KT P6SM VCSH BKN050 BKN250


Raw METAR
KMCO 182253Z 00000KT 10SM FEW250 FEW300 19/04 A3008 RMK AO2 SLP184 T01890039
KMCO 182153Z 36003KT 10SM FEW250 FEW300 21/06 A3007 RMK AO2 SLP183 T02060056
KMCO 182053Z 35005KT 10SM SCT250 22/03 A3007 RMK AO2 SLP182 T02170033 55006

METAR Board
Radar Display
Forecast Discussion
For situational awareness. Not to be used for flight planning purposes.